sensor_id;sensor_type;location;lat;lon;timestamp;pressure;altitude;pressure_sealevel;temperature;humidity
39937;BME280;27803;42.740;23.340;2023-01-16T00:01:18;95470.13;;;0.48;100.00
39937;BME280;27803;42.740;23.340;2023-01-16T00:03:43;95447.34;;;0.33;100.00
39937;BME280;27803;42.740;23.340;2023-01-16T00:06:09;95458.88;;;0.49;100.00
39937;BME280;27803;42.740;23.340;2023-01-16T00:08:34;95437.75;;;0.45;100.00
39937;BME280;27803;42.740;23.340;2023-01-16T00:11:00;95447.22;;;0.45;100.00
39937;BME280;27803;42.740;23.340;2023-01-16T00:13:25;95440.31;;;0.45;100.00
39937;BME280;27803;42.740;23.340;2023-01-16T00:15:51;95457.53;;;0.64;100.00
39937;BME280;27803;42.740;23.340;2023-01-16T00:18:17;95451.31;;;0.57;100.00
39937;BME280;27803;42.740;23.340;2023-01-16T00:20:42;95459.69;;;0.59;100.00
39937;BME280;27803;42.740;23.340;2023-01-16T00:23:12;95435.31;;;0.44;100.00
39937;BME280;27803;42.740;23.340;2023-01-16T00:25:41;95445.06;;;0.50;100.00
39937;BME280;27803;42.740;23.340;2023-01-16T00:28:08;95424.63;;;0.39;100.00
39937;BME280;27803;42.740;23.340;2023-01-16T00:30:35;95460.63;;;0.48;100.00
39937;BME280;27803;42.740;23.340;2023-01-16T00:33:01;95434.66;;;0.51;100.00
39937;BME280;27803;42.740;23.340;2023-01-16T00:35:27;95434.25;;;0.56;100.00
39937;BME280;27803;42.740;23.340;2023-01-16T00:37:52;95428.53;;;0.43;100.00
39937;BME280;27803;42.740;23.340;2023-01-16T00:40:18;95417.44;;;0.32;100.00
39937;BME280;27803;42.740;23.340;2023-01-16T00:42:43;95434.22;;;0.37;100.00
39937;BME280;27803;42.740;23.340;2023-01-16T00:45:09;95413.38;;;0.40;100.00
39937;BME280;27803;42.740;23.340;2023-01-16T00:47:35;95410.13;;;0.38;100.00
39937;BME280;27803;42.740;23.340;2023-01-16T00:50:00;95430.44;;;0.41;100.00
39937;BME280;27803;42.740;23.340;2023-01-16T00:52:26;95415.28;;;0.38;100.00
39937;BME280;27803;42.740;23.340;2023-01-16T00:54:51;95449.94;;;0.53;100.00
39937;BME280;27803;42.740;23.340;2023-01-16T00:57:16;95435.31;;;0.44;100.00
39937;BME280;27803;42.740;23.340;2023-01-16T00:59:42;95429.50;;;0.42;100.00
39937;BME280;27803;42.740;23.340;2023-01-16T01:02:07;95425.16;;;0.32;100.00
39937;BME280;27803;42.740;23.340;2023-01-16T01:04:33;95404.97;;;0.18;100.00
39937;BME280;27803;42.740;23.340;2023-01-16T01:06:58;95402.66;;;0.15;100.00
39937;BME280;27803;42.740;23.340;2023-01-16T01:09:23;95423.38;;;0.23;100.00
39937;BME280;27803;42.740;23.340;2023-01-16T01:11:49;95421.22;;;0.28;100.00
39937;BME280;27803;42.740;23.340;2023-01-16T01:14:14;95424.19;;;0.24;100.00
39937;BME280;27803;42.740;23.340;2023-01-16T01:16:39;95422.31;;;0.26;100.00
39937;BME280;27803;42.740;23.340;2023-01-16T01:19:05;95435.56;;;0.31;100.00
39937;BME280;27803;42.740;23.340;2023-01-16T01:21:31;95403.34;;;0.17;100.00
39937;BME280;27803;42.740;23.340;2023-01-16T01:23:56;95415.25;;;0.18;100.00
39937;BME280;27803;42.740;23.340;2023-01-16T01:26:22;95416.59;;;0.13;100.00
39937;BME280;27803;42.740;23.340;2023-01-16T01:28:47;95393.06;;;-0.02;100.00
39937;BME280;27803;42.740;23.340;2023-01-16T01:31:13;95417.94;;;0.07;100.00
39937;BME280;27803;42.740;23.340;2023-01-16T01:33:39;95414.00;;;0.03;100.00
39937;BME280;27803;42.740;23.340;2023-01-16T01:36:06;95379.50;;;-0.14;100.00
39937;BME280;27803;42.740;23.340;2023-01-16T01:38:32;95389.00;;;-0.05;100.00
39937;BME280;27803;42.740;23.340;2023-01-16T01:40:57;95404.97;;;-0.01;100.00
39937;BME280;27803;42.740;23.340;2023-01-16T01:43:49;95388.72;;;0.08;100.00
39937;BME280;27803;42.740;23.340;2023-01-16T01:46:22;95391.81;;;0.02;100.00
39937;BME280;27803;42.740;23.340;2023-01-16T01:48:53;95384.41;;;-0.01;100.00
39937;BME280;27803;42.740;23.340;2023-01-16T01:51:24;95390.34;;;-0.10;100.00
39937;BME280;27803;42.740;23.340;2023-01-16T01:53:59;95371.75;;;-0.33;100.00
39937;BME280;27803;42.740;23.340;2023-01-16T01:56:53;95405.69;;;-0.29;100.00
39937;BME280;27803;42.740;23.340;2023-01-16T01:59:24;95388.84;;;-0.53;100.00
39937;BME280;27803;42.740;23.340;2023-01-16T02:01:53;95402.94;;;-0.47;100.00
39937;BME280;27803;42.740;23.340;2023-01-16T02:04:24;95372.09;;;-0.57;100.00
39937;BME280;27803;42.740;23.340;2023-01-16T02:06:53;95406.41;;;-0.58;100.00
39937;BME280;27803;42.740;23.340;2023-01-16T02:09:21;95387.41;;;-0.76;100.00
39937;BME280;27803;42.740;23.340;2023-01-16T02:14:15;95406.38;;;-0.68;100.00
39937;BME280;27803;42.740;23.340;2023-01-16T02:16:41;95392.19;;;-0.62;100.00
39937;BME280;27803;42.740;23.340;2023-01-16T02:22:19;95366.94;;;-0.57;100.00
39937;BME280;27803;42.740;23.340;2023-01-16T02:36:26;95335.28;;;-0.67;100.00
39937;BME280;27803;42.740;23.340;2023-01-16T02:39:13;95359.00;;;-0.44;100.00
39937;BME280;27803;42.740;23.340;2023-01-16T02:49:48;95331.53;;;-0.63;100.00
39937;BME280;27803;42.740;23.340;2023-01-16T02:54:54;95345.09;;;-0.42;100.00
39937;BME280;27803;42.740;23.340;2023-01-16T02:57:22;95332.38;;;-0.53;100.00
39937;BME280;27803;42.740;23.340;2023-01-16T02:59:50;95321.53;;;-0.56;100.00
39937;BME280;27803;42.740;23.340;2023-01-16T03:02:16;95339.69;;;-0.39;100.00
39937;BME280;27803;42.740;23.340;2023-01-16T03:04:50;95352.38;;;-0.47;100.00
39937;BME280;27803;42.740;23.340;2023-01-16T03:10:29;95340.59;;;-0.59;100.00
39937;BME280;27803;42.740;23.340;2023-01-16T03:32:35;95282.78;;;-0.44;100.00
39937;BME280;27803;42.740;23.340;2023-01-16T03:35:07;95284.66;;;-0.46;100.00
39937;BME280;27803;42.740;23.340;2023-01-16T03:37:47;95315.09;;;-0.41;100.00
39937;BME280;27803;42.740;23.340;2023-01-16T03:40:18;95272.09;;;-0.49;100.00
39937;BME280;27803;42.740;23.340;2023-01-16T03:42:53;95309.66;;;-0.48;100.00
39937;BME280;27803;42.740;23.340;2023-01-16T03:48:11;95279.66;;;-0.47;100.00
39937;BME280;27803;42.740;23.340;2023-01-16T03:50:46;95280.06;;;-0.52;100.00
39937;BME280;27803;42.740;23.340;2023-01-16T03:53:15;95282.75;;;-0.53;100.00
39937;BME280;27803;42.740;23.340;2023-01-16T03:55:54;95252.31;;;-0.68;100.00
39937;BME280;27803;42.740;23.340;2023-01-16T03:58:32;95265.28;;;-0.69;100.00
39937;BME280;27803;42.740;23.340;2023-01-16T04:01:21;95274.22;;;-0.63;100.00
39937;BME280;27803;42.740;23.340;2023-01-16T04:04:01;95244.06;;;-0.81;100.00
39937;BME280;27803;42.740;23.340;2023-01-16T04:06:41;95273.16;;;-0.61;100.00
39937;BME280;27803;42.740;23.340;2023-01-16T04:09:14;95249.72;;;-0.77;100.00
39937;BME280;27803;42.740;23.340;2023-01-16T04:11:43;95264.28;;;-0.87;100.00
39937;BME280;27803;42.740;23.340;2023-01-16T04:14:12;95275.03;;;-0.63;100.00
39937;BME280;27803;42.740;23.340;2023-01-16T04:16:39;95256.06;;;-0.81;100.00
39937;BME280;27803;42.740;23.340;2023-01-16T04:19:07;95299.38;;;-0.57;100.00
39937;BME280;27803;42.740;23.340;2023-01-16T04:21:36;95277.97;;;-0.77;100.00
39937;BME280;27803;42.740;23.340;2023-01-16T04:24:02;95276.75;;;-0.73;100.00
39937;BME280;27803;42.740;23.340;2023-01-16T04:26:28;95256.06;;;-0.81;100.00
39937;BME280;27803;42.740;23.340;2023-01-16T04:28:54;95266.06;;;-0.78;100.00
39937;BME280;27803;42.740;23.340;2023-01-16T04:31:24;95247.13;;;-0.87;100.00
39937;BME280;27803;42.740;23.340;2023-01-16T04:33:49;95231.47;;;-0.93;100.00
39937;BME280;27803;42.740;23.340;2023-01-16T04:36:15;95267.69;;;-0.77;100.00
39937;BME280;27803;42.740;23.340;2023-01-16T04:38:40;95236.88;;;-0.87;100.00
39937;BME280;27803;42.740;23.340;2023-01-16T04:41:06;95253.41;;;-0.70;100.00
39937;BME280;27803;42.740;23.340;2023-01-16T04:43:31;95253.91;;;-0.86;100.00
39937;BME280;27803;42.740;23.340;2023-01-16T04:45:56;95261.22;;;-0.81;100.00
39937;BME280;27803;42.740;23.340;2023-01-16T04:48:22;95246.91;;;-0.74;100.00
39937;BME280;27803;42.740;23.340;2023-01-16T04:50:48;95221.34;;;-0.85;100.00
39937;BME280;27803;42.740;23.340;2023-01-16T04:53:14;95248.25;;;-0.70;100.00
39937;BME280;27803;42.740;23.340;2023-01-16T04:55:40;95236.63;;;-0.74;100.00
39937;BME280;27803;42.740;23.340;2023-01-16T04:58:05;95247.28;;;-0.79;100.00
39937;BME280;27803;42.740;23.340;2023-01-16T05:00:30;95245.00;;;-0.72;100.00
39937;BME280;27803;42.740;23.340;2023-01-16T05:02:56;95232.03;;;-0.80;100.00
39937;BME280;27803;42.740;23.340;2023-01-16T05:05:21;95243.91;;;-0.79;100.00
39937;BME280;27803;42.740;23.340;2023-01-16T05:07:47;95227.16;;;-0.83;100.00
39937;BME280;27803;42.740;23.340;2023-01-16T05:10:32;95249.72;;;-0.77;100.00
39937;BME280;27803;42.740;23.340;2023-01-16T05:12:57;95249.06;;;-0.79;100.00
39937;BME280;27803;42.740;23.340;2023-01-16T05:15:23;95214.41;;;-1.04;100.00
39937;BME280;27803;42.740;23.340;2023-01-16T05:17:48;95228.63;;;-0.90;100.00
39937;BME280;27803;42.740;23.340;2023-01-16T05:20:13;95233.94;;;-0.73;100.00
39937;BME280;27803;42.740;23.340;2023-01-16T05:22:39;95224.22;;;-0.69;100.00
39937;BME280;27803;42.740;23.340;2023-01-16T05:25:04;95216.50;;;-0.69;100.00
39937;BME280;27803;42.740;23.340;2023-01-16T05:27:30;95221.78;;;-0.61;100.00
39937;BME280;27803;42.740;23.340;2023-01-16T05:29:55;95223.94;;;-0.66;100.00
39937;BME280;27803;42.740;23.340;2023-01-16T05:32:21;95208.81;;;-0.69;100.00
39937;BME280;27803;42.740;23.340;2023-01-16T05:34:46;95196.78;;;-0.78;100.00
39937;BME280;27803;42.740;23.340;2023-01-16T05:37:11;95200.16;;;-0.68;100.00
39937;BME280;27803;42.740;23.340;2023-01-16T05:39:37;95212.06;;;-0.67;100.00
39937;BME280;27803;42.740;23.340;2023-01-16T05:42:02;95206.13;;;-0.58;100.00
39937;BME280;27803;42.740;23.340;2023-01-16T05:44:28;95196.00;;;-0.50;100.00
39937;BME280;27803;42.740;23.340;2023-01-16T05:46:53;95192.34;;;-0.47;100.00
39937;BME280;27803;42.740;23.340;2023-01-16T05:49:18;95211.00;;;-0.36;100.00
39937;BME280;27803;42.740;23.340;2023-01-16T05:51:44;95211.81;;;-0.35;100.00
39937;BME280;27803;42.740;23.340;2023-01-16T05:54:11;95202.75;;;-0.29;100.00
39937;BME280;27803;42.740;23.340;2023-01-16T05:56:37;95205.31;;;-0.29;100.00
39937;BME280;27803;42.740;23.340;2023-01-16T05:59:03;95219.66;;;-0.27;100.00
39937;BME280;27803;42.740;23.340;2023-01-16T06:01:28;95196.13;;;-0.22;100.00
39937;BME280;27803;42.740;23.340;2023-01-16T06:03:53;95194.09;;;-0.19;100.00
39937;BME280;27803;42.740;23.340;2023-01-16T06:06:19;95193.69;;;-0.05;100.00
39937;BME280;27803;42.740;23.340;2023-01-16T06:08:46;95178.00;;;-0.21;100.00
39937;BME280;27803;42.740;23.340;2023-01-16T06:11:12;95191.94;;;-0.23;100.00
39937;BME280;27803;42.740;23.340;2023-01-16T06:13:37;95173.16;;;-0.34;100.00
39937;BME280;27803;42.740;23.340;2023-01-16T06:16:03;95189.09;;;-0.20;100.00
39937;BME280;27803;42.740;23.340;2023-01-16T06:18:28;95201.53;;;-0.06;100.00
39937;BME280;27803;42.740;23.340;2023-01-16T06:20:54;95173.94;;;-0.14;100.00
39937;BME280;27803;42.740;23.340;2023-01-16T06:23:19;95196.41;;;-0.25;100.00
39937;BME280;27803;42.740;23.340;2023-01-16T06:25:48;95184.50;;;-0.26;100.00
39937;BME280;27803;42.740;23.340;2023-01-16T06:28:13;95190.19;;;-0.42;100.00
39937;BME280;27803;42.740;23.340;2023-01-16T06:30:39;95186.13;;;-0.35;100.00
39937;BME280;27803;42.740;23.340;2023-01-16T06:33:04;95203.16;;;-0.24;100.00
39937;BME280;27803;42.740;23.340;2023-01-16T06:35:29;95184.78;;;-0.29;100.00
39937;BME280;27803;42.740;23.340;2023-01-16T06:37:55;95183.69;;;-0.56;100.00
39937;BME280;27803;42.740;23.340;2023-01-16T06:40:20;95225.34;;;-0.33;100.00
39937;BME280;27803;42.740;23.340;2023-01-16T06:42:46;95189.91;;;-0.49;100.00
39937;BME280;27803;42.740;23.340;2023-01-16T06:45:11;95208.03;;;-0.21;100.00
39937;BME280;27803;42.740;23.340;2023-01-16T06:47:36;95174.09;;;-0.25;100.00
39937;BME280;27803;42.740;23.340;2023-01-16T06:50:02;95165.81;;;-0.09;100.00
39937;BME280;27803;42.740;23.340;2023-01-16T06:52:27;95174.94;;;0.22;100.00
39937;BME280;27803;42.740;23.340;2023-01-16T06:54:53;95167.03;;;0.33;100.00
39937;BME280;27803;42.740;23.340;2023-01-16T06:57:18;95166.06;;;0.44;100.00
39937;BME280;27803;42.740;23.340;2023-01-16T06:59:44;95182.41;;;0.53;100.00
39937;BME280;27803;42.740;23.340;2023-01-16T07:02:09;95164.50;;;0.61;100.00
39937;BME280;27803;42.740;23.340;2023-01-16T07:04:34;95186.91;;;0.78;100.00
39937;BME280;27803;42.740;23.340;2023-01-16T07:07:00;95159.31;;;0.71;100.00
39937;BME280;27803;42.740;23.340;2023-01-16T07:09:25;95159.56;;;0.77;100.00
39937;BME280;27803;42.740;23.340;2023-01-16T07:11:53;95165.41;;;0.97;100.00
39937;BME280;27803;42.740;23.340;2023-01-16T07:14:19;95150.94;;;1.14;100.00
39937;BME280;27803;42.740;23.340;2023-01-16T07:17:03;95158.00;;;1.12;100.00
39937;BME280;27803;42.740;23.340;2023-01-16T07:19:47;95158.00;;;1.12;100.00
39937;BME280;27803;42.740;23.340;2023-01-16T07:22:31;95162.44;;;1.37;100.00
39937;BME280;27803;42.740;23.340;2023-01-16T07:25:00;95154.50;;;1.48;100.00
39937;BME280;27803;42.740;23.340;2023-01-16T07:27:27;95156.94;;;1.68;100.00
39937;BME280;27803;42.740;23.340;2023-01-16T07:29:53;95147.97;;;1.80;100.00
39937;BME280;27803;42.740;23.340;2023-01-16T07:32:19;95145.66;;;1.94;100.00
39937;BME280;27803;42.740;23.340;2023-01-16T07:34:45;95153.50;;;2.11;100.00
39937;BME280;27803;42.740;23.340;2023-01-16T07:37:10;95133.50;;;2.05;100.00
39937;BME280;27803;42.740;23.340;2023-01-16T07:39:36;95144.25;;;2.26;100.00
39937;BME280;27803;42.740;23.340;2023-01-16T07:42:06;95137.78;;;2.22;100.00
39937;BME280;27803;42.740;23.340;2023-01-16T07:44:32;95133.75;;;2.19;100.00
39937;BME280;27803;42.740;23.340;2023-01-16T07:46:57;95116.75;;;2.09;100.00
39937;BME280;27803;42.740;23.340;2023-01-16T07:49:23;95122.41;;;2.12;100.00
39937;BME280;27803;42.740;23.340;2023-01-16T07:51:48;95131.22;;;2.27;100.00
39937;BME280;27803;42.740;23.340;2023-01-16T07:54:13;95119.97;;;2.37;100.00
39937;BME280;27803;42.740;23.340;2023-01-16T07:56:39;95131.91;;;2.38;100.00
39937;BME280;27803;42.740;23.340;2023-01-16T07:59:06;95116.03;;;2.24;100.00
39937;BME280;27803;42.740;23.340;2023-01-16T08:01:31;95124.44;;;2.26;100.00
39937;BME280;27803;42.740;23.340;2023-01-16T08:03:57;95129.91;;;2.23;100.00
39937;BME280;27803;42.740;23.340;2023-01-16T08:06:22;95091.72;;;2.01;100.00
39937;BME280;27803;42.740;23.340;2023-01-16T08:08:48;95107.53;;;2.06;100.00
39937;BME280;27803;42.740;23.340;2023-01-16T08:11:13;95116.94;;;2.15;100.00
39937;BME280;27803;42.740;23.340;2023-01-16T08:13:57;95125.16;;;2.45;100.00
39937;BME280;27803;42.740;23.340;2023-01-16T08:16:22;95128.47;;;2.63;100.00
39937;BME280;27803;42.740;23.340;2023-01-16T08:18:47;95122.75;;;2.85;100.00
39937;BME280;27803;42.740;23.340;2023-01-16T08:21:15;95122.16;;;3.00;100.00
39937;BME280;27803;42.740;23.340;2023-01-16T08:23:41;95141.16;;;2.82;100.00
39937;BME280;27803;42.740;23.340;2023-01-16T08:26:06;95110.53;;;2.96;100.00
39937;BME280;27803;42.740;23.340;2023-01-16T08:28:31;95124.78;;;3.24;100.00
39937;BME280;27803;42.740;23.340;2023-01-16T08:31:06;95119.50;;;3.42;100.00
39937;BME280;27803;42.740;23.340;2023-01-16T08:33:36;95119.31;;;3.59;100.00
39937;BME280;27803;42.740;23.340;2023-01-16T08:36:07;95109.31;;;3.65;100.00
39937;BME280;27803;42.740;23.340;2023-01-16T08:38:33;95121.91;;;3.68;100.00
39937;BME280;27803;42.740;23.340;2023-01-16T08:40:59;95085.72;;;3.51;100.00
39937;BME280;27803;42.740;23.340;2023-01-16T08:43:24;95087.47;;;3.51;100.00
39937;BME280;27803;42.740;23.340;2023-01-16T08:46:20;95079.56;;;3.60;100.00
39937;BME280;27803;42.740;23.340;2023-01-16T08:49:05;95074.38;;;3.77;100.00
39937;BME280;27803;42.740;23.340;2023-01-16T08:51:52;95085.03;;;3.90;100.00
39937;BME280;27803;42.740;23.340;2023-01-16T08:54:17;95081.81;;;3.88;100.00
39937;BME280;27803;42.740;23.340;2023-01-16T08:56:43;95099.25;;;3.94;100.00
39937;BME280;27803;42.740;23.340;2023-01-16T08:59:09;95086.97;;;3.88;100.00
39937;BME280;27803;42.740;23.340;2023-01-16T09:01:37;95105.38;;;4.17;100.00
39937;BME280;27803;42.740;23.340;2023-01-16T09:04:04;95102.59;;;4.27;100.00
39937;BME280;27803;42.740;23.340;2023-01-16T09:06:30;95080.78;;;4.21;100.00
39937;BME280;27803;42.740;23.340;2023-01-16T09:08:55;95082.38;;;4.31;100.00
39937;BME280;27803;42.740;23.340;2023-01-16T09:11:20;95089.72;;;4.58;100.00
39937;BME280;27803;42.740;23.340;2023-01-16T09:14:04;95059.00;;;4.55;100.00
39937;BME280;27803;42.740;23.340;2023-01-16T09:16:29;95097.75;;;4.71;100.00
39937;BME280;27803;42.740;23.340;2023-01-16T09:18:55;95088.66;;;4.83;100.00
39937;BME280;27803;42.740;23.340;2023-01-16T09:21:20;95084.06;;;4.94;100.00
39937;BME280;27803;42.740;23.340;2023-01-16T09:23:49;95076.25;;;5.02;100.00
39937;BME280;27803;42.740;23.340;2023-01-16T09:26:15;95046.44;;;5.06;100.00
39937;BME280;27803;42.740;23.340;2023-01-16T09:28:40;95066.69;;;5.25;100.00
39937;BME280;27803;42.740;23.340;2023-01-16T09:31:06;95044.31;;;5.24;100.00
39937;BME280;27803;42.740;23.340;2023-01-16T09:33:31;95045.75;;;5.49;100.00
39937;BME280;27803;42.740;23.340;2023-01-16T09:35:57;95036.06;;;5.66;100.00
39937;BME280;27803;42.740;23.340;2023-01-16T09:38:22;95043.34;;;5.85;100.00
39937;BME280;27803;42.740;23.340;2023-01-16T09:40:52;95027.19;;;5.98;100.00
39937;BME280;27803;42.740;23.340;2023-01-16T09:46:27;95023.19;;;6.25;100.00
39937;BME280;27803;42.740;23.340;2023-01-16T09:48:54;95044.75;;;6.40;100.00
39937;BME280;27803;42.740;23.340;2023-01-16T09:51:30;95041.31;;;6.69;100.00
39937;BME280;27803;42.740;23.340;2023-01-16T09:54:03;95063.50;;;6.87;100.00
39937;BME280;27803;42.740;23.340;2023-01-16T09:56:55;95030.56;;;6.72;100.00
39937;BME280;27803;42.740;23.340;2023-01-16T09:59:44;95041.69;;;6.66;100.00
39937;BME280;27803;42.740;23.340;2023-01-16T10:02:24;95040.81;;;6.44;100.00
39937;BME280;27803;42.740;23.340;2023-01-16T10:04:51;95024.16;;;6.39;100.00
39937;BME280;27803;42.740;23.340;2023-01-16T10:12:27;95018.91;;;6.68;100.00
39937;BME280;27803;42.740;23.340;2023-01-16T10:22:53;94992.28;;;6.81;100.00
39937;BME280;27803;42.740;23.340;2023-01-16T10:25:37;94986.16;;;6.89;100.00
39937;BME280;27803;42.740;23.340;2023-01-16T10:28:28;94996.78;;;6.94;100.00
39937;BME280;27803;42.740;23.340;2023-01-16T10:31:05;94953.13;;;6.46;100.00
39937;BME280;27803;42.740;23.340;2023-01-16T10:33:59;94977.50;;;6.81;100.00
39937;BME280;27803;42.740;23.340;2023-01-16T10:36:40;94969.50;;;6.83;100.00
39937;BME280;27803;42.740;23.340;2023-01-16T10:39:09;94957.06;;;6.78;100.00
39937;BME280;27803;42.740;23.340;2023-01-16T10:41:41;94954.72;;;6.83;100.00
39937;BME280;27803;42.740;23.340;2023-01-16T10:47:48;94933.69;;;6.42;100.00
39937;BME280;27803;42.740;23.340;2023-01-16T10:50:33;94919.59;;;6.15;100.00
39937;BME280;27803;42.740;23.340;2023-01-16T10:53:00;94913.16;;;6.11;100.00
39937;BME280;27803;42.740;23.340;2023-01-16T10:55:25;94927.66;;;6.20;100.00
39937;BME280;27803;42.740;23.340;2023-01-16T10:57:53;94916.03;;;6.16;100.00
39937;BME280;27803;42.740;23.340;2023-01-16T11:00:27;94898.94;;;6.07;100.00
39937;BME280;27803;42.740;23.340;2023-01-16T11:03:00;94915.28;;;6.23;100.00
39937;BME280;27803;42.740;23.340;2023-01-16T11:05:29;94900.72;;;6.22;100.00
39937;BME280;27803;42.740;23.340;2023-01-16T11:08:04;94880.94;;;6.20;100.00
39937;BME280;27803;42.740;23.340;2023-01-16T11:10:29;94901.25;;;6.17;100.00
39937;BME280;27803;42.740;23.340;2023-01-16T11:12:55;94866.56;;;6.03;100.00
39937;BME280;27803;42.740;23.340;2023-01-16T11:15:39;94868.19;;;6.26;100.00
39937;BME280;27803;42.740;23.340;2023-01-16T11:18:29;94875.88;;;6.34;100.00
39937;BME280;27803;42.740;23.340;2023-01-16T11:21:23;94881.72;;;6.21;100.00
39937;BME280;27803;42.740;23.340;2023-01-16T11:23:57;94870.19;;;6.24;100.00
39937;BME280;27803;42.740;23.340;2023-01-16T11:26:23;94866.44;;;6.11;100.00
39937;BME280;27803;42.740;23.340;2023-01-16T11:28:49;94858.41;;;6.06;100.00
39937;BME280;27803;42.740;23.340;2023-01-16T11:31:18;94873.41;;;6.26;100.00
39937;BME280;27803;42.740;23.340;2023-01-16T11:33:48;94868.28;;;6.32;100.00
39937;BME280;27803;42.740;23.340;2023-01-16T11:36:20;94852.03;;;6.45;100.00
39937;BME280;27803;42.740;23.340;2023-01-16T11:38:47;94841.94;;;6.78;100.00
39937;BME280;27803;42.740;23.340;2023-01-16T11:41:18;94859.50;;;7.04;100.00
39937;BME280;27803;42.740;23.340;2023-01-16T11:43:44;94854.44;;;6.96;100.00
39937;BME280;27803;42.740;23.340;2023-01-16T11:49:23;94855.53;;;7.08;100.00
39937;BME280;27803;42.740;23.340;2023-01-16T11:51:52;94838.22;;;7.22;100.00
39937;BME280;27803;42.740;23.340;2023-01-16T11:54:24;94844.41;;;7.48;100.00
39937;BME280;27803;42.740;23.340;2023-01-16T11:57:16;94840.38;;;7.46;100.00
39937;BME280;27803;42.740;23.340;2023-01-16T12:00:00;94829.94;;;7.39;100.00
39937;BME280;27803;42.740;23.340;2023-01-16T12:14:42;94815.06;;;6.99;100.00
39937;BME280;27803;42.740;23.340;2023-01-16T12:22:56;94810.19;;;6.82;100.00
39937;BME280;27803;42.740;23.340;2023-01-16T12:28:25;94799.94;;;6.74;100.00
39937;BME280;27803;42.740;23.340;2023-01-16T12:31:44;94788.72;;;6.74;100.00
39937;BME280;27803;42.740;23.340;2023-01-16T12:43:10;94787.78;;;6.53;100.00
39937;BME280;27803;42.740;23.340;2023-01-16T12:45:56;94788.34;;;6.49;100.00
39937;BME280;27803;42.740;23.340;2023-01-16T12:51:01;94773.69;;;6.41;100.00
39937;BME280;27803;42.740;23.340;2023-01-16T12:54:10;94754.56;;;6.49;100.00
39937;BME280;27803;42.740;23.340;2023-01-16T12:57:12;94754.94;;;6.46;100.00
39937;BME280;27803;42.740;23.340;2023-01-16T12:59:42;94753.59;;;6.29;100.00
39937;BME280;27803;42.740;23.340;2023-01-16T13:04:53;94729.13;;;6.16;100.00
39937;BME280;27803;42.740;23.340;2023-01-16T13:07:21;94707.00;;;5.99;100.00
39937;BME280;27803;42.740;23.340;2023-01-16T13:12:24;94720.09;;;6.12;100.00
39937;BME280;27803;42.740;23.340;2023-01-16T13:15:12;94700.69;;;6.08;100.00
39937;BME280;27803;42.740;23.340;2023-01-16T13:17:47;94709.97;;;6.17;100.00
39937;BME280;27803;42.740;23.340;2023-01-16T13:20:16;94706.38;;;6.18;100.00
39937;BME280;27803;42.740;23.340;2023-01-16T13:22:55;94681.81;;;5.93;100.00
39937;BME280;27803;42.740;23.340;2023-01-16T13:25:26;94680.38;;;5.91;100.00
39937;BME280;27803;42.740;23.340;2023-01-16T13:27:57;94677.78;;;5.91;100.00
39937;BME280;27803;42.740;23.340;2023-01-16T13:30:23;94674.59;;;5.74;100.00
39937;BME280;27803;42.740;23.340;2023-01-16T13:32:54;94680.91;;;5.86;100.00
39937;BME280;27803;42.740;23.340;2023-01-16T13:43:38;94700.06;;;5.85;100.00
39937;BME280;27803;42.740;23.340;2023-01-16T13:46:23;94657.28;;;5.38;100.00
39937;BME280;27803;42.740;23.340;2023-01-16T13:48:51;94704.25;;;5.65;100.00
39937;BME280;27803;42.740;23.340;2023-01-16T13:51:18;94679.03;;;5.59;100.00
39937;BME280;27803;42.740;23.340;2023-01-16T13:53:50;94662.34;;;5.46;100.00
39937;BME280;27803;42.740;23.340;2023-01-16T13:56:20;94678.53;;;5.48;100.00
39937;BME280;27803;42.740;23.340;2023-01-16T13:58:49;94672.00;;;5.52;100.00
39937;BME280;27803;42.740;23.340;2023-01-16T14:04:24;94650.78;;;5.28;100.00
39937;BME280;27803;42.740;23.340;2023-01-16T14:06:55;94687.59;;;5.38;100.00
39937;BME280;27803;42.740;23.340;2023-01-16T14:10:07;94684.31;;;5.29;100.00
39937;BME280;27803;42.740;23.340;2023-01-16T14:12:41;94687.75;;;5.15;100.00
39937;BME280;27803;42.740;23.340;2023-01-16T14:15:22;94659.34;;;5.07;100.00
39937;BME280;27803;42.740;23.340;2023-01-16T14:18:18;94675.88;;;5.06;100.00
39937;BME280;27803;42.740;23.340;2023-01-16T14:23:30;94692.69;;;4.95;100.00
39937;BME280;27803;42.740;23.340;2023-01-16T14:28:53;94663.22;;;4.81;100.00
39937;BME280;27803;42.740;23.340;2023-01-16T14:31:26;94656.44;;;4.66;100.00
39937;BME280;27803;42.740;23.340;2023-01-16T14:33:56;94665.09;;;4.58;100.00
39937;BME280;27803;42.740;23.340;2023-01-16T14:36:24;94681.16;;;4.68;100.00
39937;BME280;27803;42.740;23.340;2023-01-16T14:38:50;94643.13;;;4.54;100.00
39937;BME280;27803;42.740;23.340;2023-01-16T14:41:24;94649.19;;;4.61;100.00
39937;BME280;27803;42.740;23.340;2023-01-16T14:47:05;94658.50;;;4.70;100.00
39937;BME280;27803;42.740;23.340;2023-01-16T14:53:04;94646.34;;;4.56;100.00
39937;BME280;27803;42.740;23.340;2023-01-16T14:58:52;94657.50;;;4.56;100.00
39937;BME280;27803;42.740;23.340;2023-01-16T15:01:25;94655.44;;;4.52;100.00
39937;BME280;27803;42.740;23.340;2023-01-16T15:04:13;94631.97;;;4.53;100.00
39937;BME280;27803;42.740;23.340;2023-01-16T15:06:43;94632.69;;;4.47;100.00
39937;BME280;27803;42.740;23.340;2023-01-16T15:09:17;94612.25;;;4.38;100.00
39937;BME280;27803;42.740;23.340;2023-01-16T15:11:58;94626.63;;;4.40;100.00
39937;BME280;27803;42.740;23.340;2023-01-16T15:14:24;94629.13;;;4.34;100.00
39937;BME280;27803;42.740;23.340;2023-01-16T15:17:18;94628.84;;;4.43;100.00
39937;BME280;27803;42.740;23.340;2023-01-16T15:31:08;94620.19;;;4.21;100.00
39937;BME280;27803;42.740;23.340;2023-01-16T15:33:34;94637.75;;;4.26;100.00
39937;BME280;27803;42.740;23.340;2023-01-16T15:36:36;94636.06;;;4.33;100.00